This is the latest recevied weather packets stored in our database for station/object DJ2FR. If no packets are shown the sender has not sent any weather packets the latest 10 day(s).
| Time | Temp. | Humidity | Pressure | Rain* | Wind** | Luminosity | Snow |
|---|---|---|---|---|---|---|---|
| 1777808549 | 45° C | 7% | 1017.1 hPa | - | - | - | - |
| 1777807945 | 45.56° C | 8% | 1018.2 hPa | - | - | - | - |
| 1777807341 | 46.67° C | 7% | 1017.7 hPa | - | - | - | - |
| 1777806737 | 45.56° C | 8% | 1017.7 hPa | - | - | - | - |
| 1777806133 | 43.89° C | 9% | 1018.2 hPa | - | - | - | - |
| 1777805529 | 41.67° C | 10% | 1018 hPa | - | - | - | - |
| 1777804925 | 39.44° C | 11% | 1017.8 hPa | - | - | - | - |
| 1777804322 | 38.89° C | 13% | 1017.3 hPa | - | - | - | - |
| 1777803717 | 40° C | 12% | 1017.7 hPa | - | - | - | - |
| 1777803113 | 37.78° C | 14% | 1019.2 hPa | - | - | - | - |
| 1777802509 | 36.11° C | 15% | 1017.9 hPa | - | - | - | - |
| 1777801905 | 31.67° C | 19% | 1019.2 hPa | - | - | - | - |
| 1777801301 | 32.22° C | 20% | 1019.5 hPa | - | - | - | - |
| 1777800697 | 34.44° C | 18% | 1019 hPa | - | - | - | - |
| 1777800093 | 34.44° C | 18% | 1019 hPa | - | - | - | - |
| 1777799489 | 32.22° C | 21% | 1019.9 hPa | - | - | - | - |
| 1777798885 | 30° C | 24% | 1019.3 hPa | - | - | - | - |
| 1777798282 | 28.33° C | 25% | 1019.9 hPa | - | - | - | - |
| 1777797677 | 27.22° C | 26% | 1020 hPa | - | - | - | - |
| 1777797074 | 26.11° C | 27% | 1020.4 hPa | - | - | - | - |
| 1777796469 | 25.56° C | 30% | 1018.8 hPa | - | - | - | - |
| 1777795865 | 25° C | 31% | 1020.6 hPa | - | - | - | - |
| 1777795261 | 24.44° C | 31% | 1020.7 hPa | - | - | - | - |
| 1777794657 | 23.89° C | 33% | 1019.8 hPa | - | - | - | - |
| 1777794053 | 22.78° C | 36% | 1019.7 hPa | - | - | - | - |
* Rain since midnight (hover to see other rain measurements)
** Current wind speed in m/s (hover to see current wind gust speed)